sensor_id;sensor_type;location;lat;lon;timestamp;temperature;humidity
13389;DHT22;6764;53.250;10.410;2023-01-30T00:00:21;3.90;99.90
13389;DHT22;6764;53.250;10.410;2023-01-30T00:02:47;3.90;99.90
13389;DHT22;6764;53.250;10.410;2023-01-30T00:05:13;3.90;99.90
13389;DHT22;6764;53.250;10.410;2023-01-30T00:07:38;3.90;99.90
13389;DHT22;6764;53.250;10.410;2023-01-30T00:10:04;3.90;99.90
13389;DHT22;6764;53.250;10.410;2023-01-30T00:12:30;3.90;99.90
13389;DHT22;6764;53.250;10.410;2023-01-30T00:14:55;4.00;99.90
13389;DHT22;6764;53.250;10.410;2023-01-30T00:17:21;4.00;99.90
13389;DHT22;6764;53.250;10.410;2023-01-30T00:19:46;4.00;99.90
13389;DHT22;6764;53.250;10.410;2023-01-30T00:22:12;4.00;99.90
13389;DHT22;6764;53.250;10.410;2023-01-30T00:24:38;4.10;99.90
13389;DHT22;6764;53.250;10.410;2023-01-30T00:27:03;4.10;99.90
13389;DHT22;6764;53.250;10.410;2023-01-30T00:29:29;4.10;99.90
13389;DHT22;6764;53.250;10.410;2023-01-30T00:31:54;4.10;99.90
13389;DHT22;6764;53.250;10.410;2023-01-30T00:34:20;4.10;99.90
13389;DHT22;6764;53.250;10.410;2023-01-30T00:36:46;4.10;99.90
13389;DHT22;6764;53.250;10.410;2023-01-30T00:39:11;4.20;99.90
13389;DHT22;6764;53.250;10.410;2023-01-30T00:41:37;4.20;99.90
13389;DHT22;6764;53.250;10.410;2023-01-30T00:44:21;4.20;99.90
13389;DHT22;6764;53.250;10.410;2023-01-30T00:47:05;4.20;99.90
13389;DHT22;6764;53.250;10.410;2023-01-30T00:49:31;4.20;99.90
13389;DHT22;6764;53.250;10.410;2023-01-30T00:51:57;4.20;99.90
13389;DHT22;6764;53.250;10.410;2023-01-30T00:54:23;4.20;99.90
13389;DHT22;6764;53.250;10.410;2023-01-30T00:56:48;4.20;99.90
13389;DHT22;6764;53.250;10.410;2023-01-30T00:59:14;4.20;99.90
13389;DHT22;6764;53.250;10.410;2023-01-30T01:01:39;4.20;99.90
13389;DHT22;6764;53.250;10.410;2023-01-30T01:04:06;4.30;99.90
13389;DHT22;6764;53.250;10.410;2023-01-30T01:06:33;4.30;99.90
13389;DHT22;6764;53.250;10.410;2023-01-30T01:08:58;4.30;99.90
13389;DHT22;6764;53.250;10.410;2023-01-30T01:11:24;4.30;99.90
13389;DHT22;6764;53.250;10.410;2023-01-30T01:13:58;4.30;99.90
13389;DHT22;6764;53.250;10.410;2023-01-30T01:16:24;4.40;99.90
13389;DHT22;6764;53.250;10.410;2023-01-30T01:18:51;4.40;99.90
13389;DHT22;6764;53.250;10.410;2023-01-30T01:21:17;4.40;99.90
13389;DHT22;6764;53.250;10.410;2023-01-30T01:23:43;4.40;99.90
13389;DHT22;6764;53.250;10.410;2023-01-30T01:26:09;4.40;99.90
13389;DHT22;6764;53.250;10.410;2023-01-30T01:28:35;4.40;99.90
13389;DHT22;6764;53.250;10.410;2023-01-30T01:31:10;4.40;99.90
13389;DHT22;6764;53.250;10.410;2023-01-30T01:33:36;4.40;99.90
13389;DHT22;6764;53.250;10.410;2023-01-30T01:36:02;4.50;99.90
13389;DHT22;6764;53.250;10.410;2023-01-30T01:38:27;4.50;99.90
13389;DHT22;6764;53.250;10.410;2023-01-30T01:40:53;4.50;99.90
13389;DHT22;6764;53.250;10.410;2023-01-30T01:43:35;4.50;99.90
13389;DHT22;6764;53.250;10.410;2023-01-30T01:46:13;4.60;99.90
13389;DHT22;6764;53.250;10.410;2023-01-30T01:48:46;4.60;99.90
13389;DHT22;6764;53.250;10.410;2023-01-30T01:51:18;4.70;99.90
13389;DHT22;6764;53.250;10.410;2023-01-30T01:53:54;4.70;99.90
13389;DHT22;6764;53.250;10.410;2023-01-30T01:56:21;4.70;99.90
13389;DHT22;6764;53.250;10.410;2023-01-30T01:59:23;4.70;99.90
13389;DHT22;6764;53.250;10.410;2023-01-30T02:01:46;4.70;99.90
13389;DHT22;6764;53.250;10.410;2023-01-30T02:04:13;4.80;99.90
13389;DHT22;6764;53.250;10.410;2023-01-30T02:06:59;4.70;99.90
13389;DHT22;6764;53.250;10.410;2023-01-30T02:09:24;4.70;99.90
13389;DHT22;6764;53.250;10.410;2023-01-30T02:11:55;4.70;99.90
13389;DHT22;6764;53.250;10.410;2023-01-30T02:14:21;4.70;99.90
13389;DHT22;6764;53.250;10.410;2023-01-30T02:16:47;4.70;99.90
13389;DHT22;6764;53.250;10.410;2023-01-30T02:19:37;4.70;99.90
13389;DHT22;6764;53.250;10.410;2023-01-30T02:25:28;4.70;99.90
13389;DHT22;6764;53.250;10.410;2023-01-30T02:31:47;4.70;99.90
13389;DHT22;6764;53.250;10.410;2023-01-30T02:34:03;4.80;99.90
13389;DHT22;6764;53.250;10.410;2023-01-30T02:42:41;4.80;99.90
13389;DHT22;6764;53.250;10.410;2023-01-30T02:45:55;4.80;99.90
13389;DHT22;6764;53.250;10.410;2023-01-30T02:48:05;4.90;99.90
13389;DHT22;6764;53.250;10.410;2023-01-30T02:50:44;4.80;99.90
13389;DHT22;6764;53.250;10.410;2023-01-30T02:53:11;4.90;99.90
13389;DHT22;6764;53.250;10.410;2023-01-30T02:55:40;4.90;99.90
13389;DHT22;6764;53.250;10.410;2023-01-30T02:58:06;4.90;99.90
13389;DHT22;6764;53.250;10.410;2023-01-30T03:00:52;4.90;99.90
13389;DHT22;6764;53.250;10.410;2023-01-30T03:03:49;5.00;99.90
13389;DHT22;6764;53.250;10.410;2023-01-30T03:11:21;5.00;99.90
13389;DHT22;6764;53.250;10.410;2023-01-30T03:13:57;5.00;99.90
13389;DHT22;6764;53.250;10.410;2023-01-30T03:16:36;4.90;99.90
13389;DHT22;6764;53.250;10.410;2023-01-30T03:19:04;5.00;99.90
13389;DHT22;6764;53.250;10.410;2023-01-30T03:21:31;5.00;99.90
13389;DHT22;6764;53.250;10.410;2023-01-30T03:23:57;5.00;99.90
13389;DHT22;6764;53.250;10.410;2023-01-30T03:26:26;5.10;99.90
13389;DHT22;6764;53.250;10.410;2023-01-30T03:28:54;5.10;99.90
13389;DHT22;6764;53.250;10.410;2023-01-30T03:31:20;5.10;99.90
13389;DHT22;6764;53.250;10.410;2023-01-30T03:33:46;5.10;99.90
13389;DHT22;6764;53.250;10.410;2023-01-30T03:36:11;5.20;99.90
13389;DHT22;6764;53.250;10.410;2023-01-30T03:38:38;5.20;99.90
13389;DHT22;6764;53.250;10.410;2023-01-30T03:41:04;5.30;99.90
13389;DHT22;6764;53.250;10.410;2023-01-30T03:43:30;5.30;99.90
13389;DHT22;6764;53.250;10.410;2023-01-30T03:45:55;5.30;99.90
13389;DHT22;6764;53.250;10.410;2023-01-30T03:48:21;5.30;99.90
13389;DHT22;6764;53.250;10.410;2023-01-30T03:50:47;5.40;99.90
13389;DHT22;6764;53.250;10.410;2023-01-30T03:53:12;5.40;99.90
13389;DHT22;6764;53.250;10.410;2023-01-30T03:55:38;5.40;99.90
13389;DHT22;6764;53.250;10.410;2023-01-30T03:58:04;5.40;99.90
13389;DHT22;6764;53.250;10.410;2023-01-30T04:00:30;5.50;99.90
13389;DHT22;6764;53.250;10.410;2023-01-30T04:02:55;5.50;99.90
13389;DHT22;6764;53.250;10.410;2023-01-30T04:05:22;5.60;99.90
13389;DHT22;6764;53.250;10.410;2023-01-30T04:07:48;5.60;99.90
13389;DHT22;6764;53.250;10.410;2023-01-30T04:10:14;5.60;99.90
13389;DHT22;6764;53.250;10.410;2023-01-30T04:12:41;5.60;99.90
13389;DHT22;6764;53.250;10.410;2023-01-30T04:15:08;5.60;99.90
13389;DHT22;6764;53.250;10.410;2023-01-30T04:17:33;5.60;99.90
13389;DHT22;6764;53.250;10.410;2023-01-30T04:19:59;5.60;99.90
13389;DHT22;6764;53.250;10.410;2023-01-30T04:22:25;5.60;99.90
13389;DHT22;6764;53.250;10.410;2023-01-30T04:24:50;5.60;99.90
13389;DHT22;6764;53.250;10.410;2023-01-30T04:27:16;5.70;99.90
13389;DHT22;6764;53.250;10.410;2023-01-30T04:29:41;5.70;99.90
13389;DHT22;6764;53.250;10.410;2023-01-30T04:32:08;5.70;99.90
13389;DHT22;6764;53.250;10.410;2023-01-30T04:34:34;5.80;99.90
13389;DHT22;6764;53.250;10.410;2023-01-30T04:36:59;5.80;99.90
13389;DHT22;6764;53.250;10.410;2023-01-30T04:39:25;5.80;99.90
13389;DHT22;6764;53.250;10.410;2023-01-30T04:41:50;5.90;99.90
13389;DHT22;6764;53.250;10.410;2023-01-30T04:44:16;5.90;99.90
13389;DHT22;6764;53.250;10.410;2023-01-30T04:46:42;5.90;99.90
13389;DHT22;6764;53.250;10.410;2023-01-30T04:49:09;5.90;99.90
13389;DHT22;6764;53.250;10.410;2023-01-30T04:51:35;5.90;99.90
13389;DHT22;6764;53.250;10.410;2023-01-30T04:54:01;6.00;99.90
13389;DHT22;6764;53.250;10.410;2023-01-30T04:56:27;6.00;99.90
13389;DHT22;6764;53.250;10.410;2023-01-30T04:58:52;6.00;99.90
13389;DHT22;6764;53.250;10.410;2023-01-30T05:01:25;6.00;99.90
13389;DHT22;6764;53.250;10.410;2023-01-30T05:03:54;6.00;99.90
13389;DHT22;6764;53.250;10.410;2023-01-30T05:06:20;6.10;99.90
13389;DHT22;6764;53.250;10.410;2023-01-30T05:08:54;6.10;99.90
13389;DHT22;6764;53.250;10.410;2023-01-30T05:11:21;6.20;99.90
13389;DHT22;6764;53.250;10.410;2023-01-30T05:13:46;6.20;99.90
13389;DHT22;6764;53.250;10.410;2023-01-30T05:16:13;6.20;99.90
13389;DHT22;6764;53.250;10.410;2023-01-30T05:18:40;6.20;99.90
13389;DHT22;6764;53.250;10.410;2023-01-30T05:21:11;6.30;99.90
13389;DHT22;6764;53.250;10.410;2023-01-30T05:23:37;6.30;99.90
13389;DHT22;6764;53.250;10.410;2023-01-30T05:26:03;6.20;99.90
13389;DHT22;6764;53.250;10.410;2023-01-30T05:28:29;6.20;99.90
13389;DHT22;6764;53.250;10.410;2023-01-30T05:31:09;6.30;99.90
13389;DHT22;6764;53.250;10.410;2023-01-30T05:33:35;6.20;99.90
13389;DHT22;6764;53.250;10.410;2023-01-30T05:36:00;6.20;99.90
13389;DHT22;6764;53.250;10.410;2023-01-30T05:38:27;6.20;99.90
13389;DHT22;6764;53.250;10.410;2023-01-30T05:41:00;6.20;99.90
13389;DHT22;6764;53.250;10.410;2023-01-30T05:43:27;6.20;99.90
13389;DHT22;6764;53.250;10.410;2023-01-30T05:45:54;6.20;99.90
13389;DHT22;6764;53.250;10.410;2023-01-30T05:48:21;6.20;99.90
13389;DHT22;6764;53.250;10.410;2023-01-30T05:50:52;6.20;99.90
13389;DHT22;6764;53.250;10.410;2023-01-30T05:53:19;6.20;99.90
13389;DHT22;6764;53.250;10.410;2023-01-30T05:55:45;6.20;99.90
13389;DHT22;6764;53.250;10.410;2023-01-30T05:58:12;6.20;99.90
13389;DHT22;6764;53.250;10.410;2023-01-30T06:00:38;6.30;99.90
13389;DHT22;6764;53.250;10.410;2023-01-30T06:03:03;6.30;99.90
13389;DHT22;6764;53.250;10.410;2023-01-30T06:05:29;6.30;99.90
13389;DHT22;6764;53.250;10.410;2023-01-30T06:07:55;6.30;99.90
13389;DHT22;6764;53.250;10.410;2023-01-30T06:10:20;6.20;99.90
13389;DHT22;6764;53.250;10.410;2023-01-30T06:12:46;6.20;99.90
13389;DHT22;6764;53.250;10.410;2023-01-30T06:15:11;6.10;99.90
13389;DHT22;6764;53.250;10.410;2023-01-30T06:17:41;6.10;99.90
13389;DHT22;6764;53.250;10.410;2023-01-30T06:20:08;6.10;99.90
13389;DHT22;6764;53.250;10.410;2023-01-30T06:22:34;6.10;99.90
13389;DHT22;6764;53.250;10.410;2023-01-30T06:24:59;6.10;99.90
13389;DHT22;6764;53.250;10.410;2023-01-30T06:27:25;6.10;99.90
13389;DHT22;6764;53.250;10.410;2023-01-30T06:29:50;6.00;99.90
13389;DHT22;6764;53.250;10.410;2023-01-30T06:32:16;5.90;99.90
13389;DHT22;6764;53.250;10.410;2023-01-30T06:34:41;5.90;99.90
13389;DHT22;6764;53.250;10.410;2023-01-30T06:37:07;5.90;99.90
13389;DHT22;6764;53.250;10.410;2023-01-30T06:39:33;5.90;99.90
13389;DHT22;6764;53.250;10.410;2023-01-30T06:41:59;5.90;99.90
13389;DHT22;6764;53.250;10.410;2023-01-30T06:44:24;5.90;99.90
13389;DHT22;6764;53.250;10.410;2023-01-30T06:46:51;5.90;99.90
13389;DHT22;6764;53.250;10.410;2023-01-30T06:49:16;5.90;99.90
13389;DHT22;6764;53.250;10.410;2023-01-30T06:51:42;5.90;99.90
13389;DHT22;6764;53.250;10.410;2023-01-30T06:54:07;5.90;99.90
13389;DHT22;6764;53.250;10.410;2023-01-30T06:56:33;5.80;99.90
13389;DHT22;6764;53.250;10.410;2023-01-30T06:58:58;5.70;99.90
13389;DHT22;6764;53.250;10.410;2023-01-30T07:01:24;5.70;99.90
13389;DHT22;6764;53.250;10.410;2023-01-30T07:03:50;5.70;99.90
13389;DHT22;6764;53.250;10.410;2023-01-30T07:06:15;5.70;99.90
13389;DHT22;6764;53.250;10.410;2023-01-30T07:08:41;5.70;99.90
13389;DHT22;6764;53.250;10.410;2023-01-30T07:11:06;5.70;99.90
13389;DHT22;6764;53.250;10.410;2023-01-30T07:13:32;5.70;99.90
13389;DHT22;6764;53.250;10.410;2023-01-30T07:15:57;5.70;99.90
13389;DHT22;6764;53.250;10.410;2023-01-30T07:18:23;5.60;99.90
13389;DHT22;6764;53.250;10.410;2023-01-30T07:20:49;5.60;99.90
13389;DHT22;6764;53.250;10.410;2023-01-30T07:23:14;5.60;99.90
13389;DHT22;6764;53.250;10.410;2023-01-30T07:25:40;5.50;99.90
13389;DHT22;6764;53.250;10.410;2023-01-30T07:28:06;5.50;99.90
13389;DHT22;6764;53.250;10.410;2023-01-30T07:30:33;5.50;99.90
13389;DHT22;6764;53.250;10.410;2023-01-30T07:33:01;5.40;99.90
13389;DHT22;6764;53.250;10.410;2023-01-30T07:35:29;5.40;99.90
13389;DHT22;6764;53.250;10.410;2023-01-30T07:37:55;5.40;99.90
13389;DHT22;6764;53.250;10.410;2023-01-30T07:40:21;5.50;99.90
13389;DHT22;6764;53.250;10.410;2023-01-30T07:43:05;5.50;99.90
13389;DHT22;6764;53.250;10.410;2023-01-30T07:45:39;5.40;99.90
13389;DHT22;6764;53.250;10.410;2023-01-30T07:48:06;5.50;99.90
13389;DHT22;6764;53.250;10.410;2023-01-30T07:50:32;5.50;99.90
13389;DHT22;6764;53.250;10.410;2023-01-30T07:52:57;5.50;99.90
13389;DHT22;6764;53.250;10.410;2023-01-30T07:55:23;5.50;99.90
13389;DHT22;6764;53.250;10.410;2023-01-30T07:57:49;5.70;99.90
13389;DHT22;6764;53.250;10.410;2023-01-30T08:00:15;5.70;99.90
13389;DHT22;6764;53.250;10.410;2023-01-30T08:02:41;5.80;99.90
13389;DHT22;6764;53.250;10.410;2023-01-30T08:05:06;5.70;99.90
13389;DHT22;6764;53.250;10.410;2023-01-30T08:07:32;5.70;99.90
13389;DHT22;6764;53.250;10.410;2023-01-30T08:09:58;5.70;99.90
13389;DHT22;6764;53.250;10.410;2023-01-30T08:12:23;5.80;99.90
13389;DHT22;6764;53.250;10.410;2023-01-30T08:14:49;5.70;99.90
13389;DHT22;6764;53.250;10.410;2023-01-30T08:17:14;5.70;99.90
13389;DHT22;6764;53.250;10.410;2023-01-30T08:19:40;5.70;99.90
13389;DHT22;6764;53.250;10.410;2023-01-30T08:22:06;5.80;99.90
13389;DHT22;6764;53.250;10.410;2023-01-30T08:24:40;5.80;99.90
13389;DHT22;6764;53.250;10.410;2023-01-30T08:27:06;5.80;99.90
13389;DHT22;6764;53.250;10.410;2023-01-30T08:29:32;5.90;99.90
13389;DHT22;6764;53.250;10.410;2023-01-30T08:31:58;5.90;99.90
13389;DHT22;6764;53.250;10.410;2023-01-30T08:34:24;6.00;99.90
13389;DHT22;6764;53.250;10.410;2023-01-30T08:36:50;6.10;99.90
13389;DHT22;6764;53.250;10.410;2023-01-30T08:39:15;6.30;99.90
13389;DHT22;6764;53.250;10.410;2023-01-30T08:41:41;6.40;99.90
13389;DHT22;6764;53.250;10.410;2023-01-30T08:44:08;6.50;99.90
13389;DHT22;6764;53.250;10.410;2023-01-30T08:46:34;6.60;99.90
13389;DHT22;6764;53.250;10.410;2023-01-30T08:49:00;6.60;99.90
13389;DHT22;6764;53.250;10.410;2023-01-30T08:51:25;6.60;99.90
13389;DHT22;6764;53.250;10.410;2023-01-30T08:53:51;6.50;99.90
13389;DHT22;6764;53.250;10.410;2023-01-30T08:56:16;6.60;99.90
13389;DHT22;6764;53.250;10.410;2023-01-30T08:58:42;6.60;99.90
13389;DHT22;6764;53.250;10.410;2023-01-30T09:01:10;6.60;99.90
13389;DHT22;6764;53.250;10.410;2023-01-30T09:03:35;6.50;99.90
13389;DHT22;6764;53.250;10.410;2023-01-30T09:06:01;6.50;99.90
13389;DHT22;6764;53.250;10.410;2023-01-30T09:08:27;6.50;99.90
13389;DHT22;6764;53.250;10.410;2023-01-30T09:10:57;6.50;99.90
13389;DHT22;6764;53.250;10.410;2023-01-30T09:13:22;6.50;99.90
13389;DHT22;6764;53.250;10.410;2023-01-30T09:15:48;6.50;99.90
13389;DHT22;6764;53.250;10.410;2023-01-30T09:18:13;6.50;99.90
13389;DHT22;6764;53.250;10.410;2023-01-30T09:20:39;6.50;99.90
13389;DHT22;6764;53.250;10.410;2023-01-30T09:23:05;6.50;99.90
13389;DHT22;6764;53.250;10.410;2023-01-30T09:25:30;6.60;99.90
13389;DHT22;6764;53.250;10.410;2023-01-30T09:27:56;6.60;99.90
13389;DHT22;6764;53.250;10.410;2023-01-30T09:30:21;6.60;99.90
13389;DHT22;6764;53.250;10.410;2023-01-30T09:32:47;6.70;99.90
13389;DHT22;6764;53.250;10.410;2023-01-30T09:35:13;6.70;99.90
13389;DHT22;6764;53.250;10.410;2023-01-30T09:37:49;6.80;99.90
13389;DHT22;6764;53.250;10.410;2023-01-30T09:40:17;6.80;99.90
13389;DHT22;6764;53.250;10.410;2023-01-30T09:43:18;6.90;99.90
13389;DHT22;6764;53.250;10.410;2023-01-30T09:46:05;6.90;99.90
13389;DHT22;6764;53.250;10.410;2023-01-30T09:48:38;7.10;99.90
13389;DHT22;6764;53.250;10.410;2023-01-30T09:56:36;7.10;99.90
13389;DHT22;6764;53.250;10.410;2023-01-30T09:59:02;7.10;99.90
13389;DHT22;6764;53.250;10.410;2023-01-30T10:01:53;7.20;99.90
13389;DHT22;6764;53.250;10.410;2023-01-30T10:04:34;7.20;99.90
13389;DHT22;6764;53.250;10.410;2023-01-30T10:07:27;7.20;99.90
13389;DHT22;6764;53.250;10.410;2023-01-30T10:12:30;7.10;99.90
13389;DHT22;6764;53.250;10.410;2023-01-30T10:18:06;7.20;99.90
13389;DHT22;6764;53.250;10.410;2023-01-30T10:23:29;7.30;99.90
13389;DHT22;6764;53.250;10.410;2023-01-30T10:26:08;7.50;99.90
13389;DHT22;6764;53.250;10.410;2023-01-30T10:28:39;7.70;99.90
13389;DHT22;6764;53.250;10.410;2023-01-30T10:31:15;7.80;99.90
13389;DHT22;6764;53.250;10.410;2023-01-30T10:34:08;7.90;99.90
13389;DHT22;6764;53.250;10.410;2023-01-30T10:40:13;7.90;99.90
13389;DHT22;6764;53.250;10.410;2023-01-30T10:42:37;7.90;99.90
13389;DHT22;6764;53.250;10.410;2023-01-30T10:45:15;8.10;99.90
13389;DHT22;6764;53.250;10.410;2023-01-30T10:51:03;8.00;99.90
13389;DHT22;6764;53.250;10.410;2023-01-30T10:53:48;8.00;99.90
13389;DHT22;6764;53.250;10.410;2023-01-30T10:59:14;8.30;99.90
13389;DHT22;6764;53.250;10.410;2023-01-30T11:04:29;8.50;99.90
13389;DHT22;6764;53.250;10.410;2023-01-30T11:06:57;8.70;99.90
13389;DHT22;6764;53.250;10.410;2023-01-30T11:09:45;8.50;99.90
13389;DHT22;6764;53.250;10.410;2023-01-30T11:12:11;8.50;99.90
13389;DHT22;6764;53.250;10.410;2023-01-30T11:15:00;8.50;99.90
13389;DHT22;6764;53.250;10.410;2023-01-30T11:17:31;8.60;99.90
13389;DHT22;6764;53.250;10.410;2023-01-30T11:22:33;8.60;99.90
13389;DHT22;6764;53.250;10.410;2023-01-30T11:25:13;8.60;99.90
13389;DHT22;6764;53.250;10.410;2023-01-30T11:27:41;8.40;99.90
13389;DHT22;6764;53.250;10.410;2023-01-30T11:30:16;8.30;99.90
13389;DHT22;6764;53.250;10.410;2023-01-30T11:32:52;8.20;99.90
13389;DHT22;6764;53.250;10.410;2023-01-30T11:35:29;8.20;99.90
13389;DHT22;6764;53.250;10.410;2023-01-30T11:38:11;8.10;99.90
13389;DHT22;6764;53.250;10.410;2023-01-30T11:40:38;8.00;99.90
13389;DHT22;6764;53.250;10.410;2023-01-30T11:43:12;7.70;99.90
13389;DHT22;6764;53.250;10.410;2023-01-30T11:45:47;7.70;99.90
13389;DHT22;6764;53.250;10.410;2023-01-30T11:48:19;7.60;99.90
13389;DHT22;6764;53.250;10.410;2023-01-30T11:50:48;7.50;99.90
13389;DHT22;6764;53.250;10.410;2023-01-30T11:55:54;7.00;99.90
13389;DHT22;6764;53.250;10.410;2023-01-30T11:58:31;6.90;99.90
13389;DHT22;6764;53.250;10.410;2023-01-30T12:00:58;6.90;99.90
13389;DHT22;6764;53.250;10.410;2023-01-30T12:03:27;6.70;99.90
13389;DHT22;6764;53.250;10.410;2023-01-30T12:05:56;6.50;99.90
13389;DHT22;6764;53.250;10.410;2023-01-30T12:08:31;6.30;99.90
13389;DHT22;6764;53.250;10.410;2023-01-30T12:10:58;6.30;99.90
13389;DHT22;6764;53.250;10.410;2023-01-30T12:13:39;6.30;99.90
13389;DHT22;6764;53.250;10.410;2023-01-30T12:16:25;6.20;99.90
13389;DHT22;6764;53.250;10.410;2023-01-30T12:19:15;6.30;99.90
13389;DHT22;6764;53.250;10.410;2023-01-30T12:24:27;6.40;99.90
13389;DHT22;6764;53.250;10.410;2023-01-30T12:26:57;6.50;99.90
13389;DHT22;6764;53.250;10.410;2023-01-30T12:29:34;6.60;99.90
13389;DHT22;6764;53.250;10.410;2023-01-30T12:32:09;6.60;99.90
13389;DHT22;6764;53.250;10.410;2023-01-30T12:34:35;6.60;99.90
13389;DHT22;6764;53.250;10.410;2023-01-30T12:48:36;6.80;99.90
13389;DHT22;6764;53.250;10.410;2023-01-30T12:57:01;6.60;99.90
13389;DHT22;6764;53.250;10.410;2023-01-30T13:00:13;6.60;99.90
13389;DHT22;6764;53.250;10.410;2023-01-30T13:06:06;6.50;99.90
13389;DHT22;6764;53.250;10.410;2023-01-30T13:14:12;6.20;99.90
13389;DHT22;6764;53.250;10.410;2023-01-30T13:19:43;6.40;99.90
13389;DHT22;6764;53.250;10.410;2023-01-30T13:22:40;6.50;99.90
13389;DHT22;6764;53.250;10.410;2023-01-30T13:27:45;6.60;99.90
13389;DHT22;6764;53.250;10.410;2023-01-30T13:30:16;6.70;99.90
13389;DHT22;6764;53.250;10.410;2023-01-30T13:32:48;6.80;99.90
13389;DHT22;6764;53.250;10.410;2023-01-30T13:35:19;6.80;99.90
13389;DHT22;6764;53.250;10.410;2023-01-30T13:37:46;7.00;99.90
13389;DHT22;6764;53.250;10.410;2023-01-30T13:45:36;7.30;99.90
13389;DHT22;6764;53.250;10.410;2023-01-30T14:07:30;7.40;99.90
13389;DHT22;6764;53.250;10.410;2023-01-30T14:12:54;7.30;99.90
13389;DHT22;6764;53.250;10.410;2023-01-30T14:15:25;7.40;99.90
13389;DHT22;6764;53.250;10.410;2023-01-30T14:20:44;7.50;99.90
13389;DHT22;6764;53.250;10.410;2023-01-30T14:23:32;7.50;99.90
13389;DHT22;6764;53.250;10.410;2023-01-30T14:25:58;7.50;99.90
13389;DHT22;6764;53.250;10.410;2023-01-30T14:30:57;7.60;99.90
13389;DHT22;6764;53.250;10.410;2023-01-30T14:38:34;7.60;99.90
13389;DHT22;6764;53.250;10.410;2023-01-30T14:49:03;7.40;99.90
13389;DHT22;6764;53.250;10.410;2023-01-30T14:59:38;7.60;99.90
13389;DHT22;6764;53.250;10.410;2023-01-30T15:04:45;7.70;99.90
13389;DHT22;6764;53.250;10.410;2023-01-30T15:15:40;7.60;99.90
13389;DHT22;6764;53.250;10.410;2023-01-30T15:26:16;7.60;99.90
13389;DHT22;6764;53.250;10.410;2023-01-30T15:31:36;7.60;99.90
13389;DHT22;6764;53.250;10.410;2023-01-30T15:34:01;7.60;99.90
13389;DHT22;6764;53.250;10.410;2023-01-30T15:36:30;7.60;99.90
13389;DHT22;6764;53.250;10.410;2023-01-30T15:38:57;7.60;99.90
13389;DHT22;6764;53.250;10.410;2023-01-30T15:41:24;7.60;99.90
13389;DHT22;6764;53.250;10.410;2023-01-30T15:49:54;7.50;99.90
13389;DHT22;6764;53.250;10.410;2023-01-30T15:52:24;7.60;99.90
13389;DHT22;6764;53.250;10.410;2023-01-30T15:54:57;7.50;99.90
13389;DHT22;6764;53.250;10.410;2023-01-30T15:57:26;7.40;99.90
13389;DHT22;6764;53.250;10.410;2023-01-30T15:59:55;7.40;99.90
13389;DHT22;6764;53.250;10.410;2023-01-30T16:02:30;7.30;99.90
13389;DHT22;6764;53.250;10.410;2023-01-30T16:07:43;7.40;99.90
13389;DHT22;6764;53.250;10.410;2023-01-30T16:10:24;7.40;99.90
13389;DHT22;6764;53.250;10.410;2023-01-30T16:12:51;7.30;99.90
13389;DHT22;6764;53.250;10.410;2023-01-30T16:15:28;7.30;99.90
13389;DHT22;6764;53.250;10.410;2023-01-30T16:21:00;7.30;99.90
13389;DHT22;6764;53.250;10.410;2023-01-30T16:24:02;7.30;99.90
13389;DHT22;6764;53.250;10.410;2023-01-30T16:26:29;7.20;99.90
13389;DHT22;6764;53.250;10.410;2023-01-30T16:29:10;7.20;99.90
13389;DHT22;6764;53.250;10.410;2023-01-30T16:31:38;7.30;99.90
13389;DHT22;6764;53.250;10.410;2023-01-30T16:34:04;7.30;99.90
13389;DHT22;6764;53.250;10.410;2023-01-30T16:36:38;7.30;99.90
13389;DHT22;6764;53.250;10.410;2023-01-30T16:39:27;7.30;99.90
13389;DHT22;6764;53.250;10.410;2023-01-30T16:41:55;7.30;99.90
13389;DHT22;6764;53.250;10.410;2023-01-30T16:44:28;7.30;99.90
13389;DHT22;6764;53.250;10.410;2023-01-30T16:47:05;7.30;99.90
13389;DHT22;6764;53.250;10.410;2023-01-30T16:54:45;7.30;99.90
13389;DHT22;6764;53.250;10.410;2023-01-30T17:00:18;7.30;99.90
13389;DHT22;6764;53.250;10.410;2023-01-30T17:02:50;7.30;99.90
13389;DHT22;6764;53.250;10.410;2023-01-30T17:05:19;7.20;99.90
13389;DHT22;6764;53.250;10.410;2023-01-30T17:07:46;7.30;99.90
13389;DHT22;6764;53.250;10.410;2023-01-30T17:13:02;7.30;99.90
13389;DHT22;6764;53.250;10.410;2023-01-30T17:15:35;7.30;99.90
13389;DHT22;6764;53.250;10.410;2023-01-30T17:18:01;7.30;99.90
13389;DHT22;6764;53.250;10.410;2023-01-30T17:20:33;7.30;99.90
13389;DHT22;6764;53.250;10.410;2023-01-30T17:23:03;7.20;99.90
13389;DHT22;6764;53.250;10.410;2023-01-30T17:25:32;7.30;99.90
13389;DHT22;6764;53.250;10.410;2023-01-30T17:28:06;7.30;99.90
13389;DHT22;6764;53.250;10.410;2023-01-30T17:30:32;7.20;99.90
13389;DHT22;6764;53.250;10.410;2023-01-30T17:32:58;7.00;99.90
13389;DHT22;6764;53.250;10.410;2023-01-30T17:35:23;6.90;99.90
13389;DHT22;6764;53.250;10.410;2023-01-30T17:37:49;6.90;99.90
13389;DHT22;6764;53.250;10.410;2023-01-30T17:40:22;6.90;99.90
13389;DHT22;6764;53.250;10.410;2023-01-30T17:42:51;6.80;99.90
13389;DHT22;6764;53.250;10.410;2023-01-30T17:45:16;6.80;99.90
13389;DHT22;6764;53.250;10.410;2023-01-30T17:47:42;6.80;99.90
13389;DHT22;6764;53.250;10.410;2023-01-30T17:50:11;6.80;99.90
13389;DHT22;6764;53.250;10.410;2023-01-30T17:52:38;6.80;99.90
13389;DHT22;6764;53.250;10.410;2023-01-30T17:55:04;6.80;99.90
13389;DHT22;6764;53.250;10.410;2023-01-30T17:57:30;6.80;99.90
13389;DHT22;6764;53.250;10.410;2023-01-30T17:59:56;6.70;99.90
13389;DHT22;6764;53.250;10.410;2023-01-30T18:02:21;6.60;99.90
13389;DHT22;6764;53.250;10.410;2023-01-30T18:04:47;6.40;99.90
13389;DHT22;6764;53.250;10.410;2023-01-30T18:07:13;6.30;99.90
13389;DHT22;6764;53.250;10.410;2023-01-30T18:09:40;6.30;99.90
13389;DHT22;6764;53.250;10.410;2023-01-30T18:12:06;6.20;99.90
13389;DHT22;6764;53.250;10.410;2023-01-30T18:14:32;6.30;99.90
13389;DHT22;6764;53.250;10.410;2023-01-30T18:16:57;6.30;99.90
13389;DHT22;6764;53.250;10.410;2023-01-30T18:19:27;6.40;99.90
13389;DHT22;6764;53.250;10.410;2023-01-30T18:21:53;6.40;99.90
13389;DHT22;6764;53.250;10.410;2023-01-30T18:24:19;6.40;99.90
13389;DHT22;6764;53.250;10.410;2023-01-30T18:26:45;6.30;99.90
13389;DHT22;6764;53.250;10.410;2023-01-30T18:29:11;6.30;99.90
13389;DHT22;6764;53.250;10.410;2023-01-30T18:31:38;6.30;99.90
13389;DHT22;6764;53.250;10.410;2023-01-30T18:34:05;6.30;99.90
13389;DHT22;6764;53.250;10.410;2023-01-30T18:36:35;6.30;99.90
13389;DHT22;6764;53.250;10.410;2023-01-30T18:39:01;6.30;99.90
13389;DHT22;6764;53.250;10.410;2023-01-30T18:41:28;6.30;99.90
13389;DHT22;6764;53.250;10.410;2023-01-30T18:43:55;6.20;99.90
13389;DHT22;6764;53.250;10.410;2023-01-30T18:46:21;6.10;99.90
13389;DHT22;6764;53.250;10.410;2023-01-30T18:48:47;6.20;99.90
13389;DHT22;6764;53.250;10.410;2023-01-30T18:51:21;6.10;99.90
13389;DHT22;6764;53.250;10.410;2023-01-30T18:53:48;6.10;99.90
13389;DHT22;6764;53.250;10.410;2023-01-30T18:56:16;6.10;99.90
13389;DHT22;6764;53.250;10.410;2023-01-30T18:58:42;6.10;99.90
13389;DHT22;6764;53.250;10.410;2023-01-30T19:01:16;6.10;99.90